Impacts METAR Board
IDs:

KCLE - Cleveland/Hopkins In, OH, US

Updated at: 1300 UTC 16 Sep 2019
Potential Impact None Slight Moderate High
Time 16/01Z 16/02Z 16/03Z 16/04Z 16/05Z 16/06Z 16/07Z 16/08Z 16/09Z 16/10Z 16/11Z 16/12Z 16/13Z
Temp74 72 72 70 69 70 70 69 69 67 66 67 70
Dewpt61 61 61 65 65 64 64 63 63 62 62 63 63
Altim30.08 30.08 30.08 30.09 30.10 30.09 30.07 30.07 30.07 30.06 30.06 30.08 30.09
VIS10 10 10 10 10 10 10 10 10 10 10 10 10
CIG80 85 95 65 55 50 60 60 70 250 -- 55 55
CoverOVCBKNBKNOVCOVCOVCOVCBKNOVCBKNSCTBKNBKN
FltCatVFRVFRVFRVFRVFRVFRVFRVFRVFRVFRVFRVFRVFR
WX-------RA-RA----------------
WDir200170190360360090150170170170200240
WSpd6 4 7 3 4 0 4 5 8 6 6 4 3
WGst-- -- -- -- -- -- -- -- -- -- -- -- --
Raw hourly METARs
KCLE 160051Z 20006KT 10SM FEW055 OVC080 23/16 A3008 RMK AO2 SLP183 T02330161
KCLE 160151Z 17004KT 10SM BKN085 BKN110 22/16 A3008 RMK AO2 SLP183 T02220161
KCLE 160251Z 19007KT 10SM SCT070 BKN095 22/16 A3008 RMK AO2 SLP181 T02220161 58001
KCLE 160351Z 36003KT 10SM -RA OVC065 21/18 A3009 RMK AO2 RAB01E13B49 SLP183 P0000 T02110183
KCLE 160451Z 36004KT 10SM -RA OVC055 21/18 A3010 RMK AO2 RAE0352B47 SLP189 P0000 T02060183 402500150
KCLE 160551Z 00000KT 10SM OVC050 21/18 A3009 RMK AO2 RAE0456 SLP185 P0000 60000 T02110178 10239 20206 50004
KCLE 160651Z 09004KT 10SM OVC060 21/18 A3007 RMK AO2 SLP179 T02110178
KCLE 160751Z 15005KT 10SM BKN060 BKN090 21/17 A3007 RMK AO2 SLP176 T02060172
KCLE 160851Z 17008KT 10SM OVC070 21/17 A3007 RMK AO2 SLP176 T02060172 56008
KCLE 160951Z 17006KT 10SM FEW055 SCT100 BKN250 19/17 A3006 RMK AO2 SLP175 T01940167
KCLE 161051Z 17006KT 10SM FEW050 SCT100 SCT250 19/17 A3006 RMK AO2 SLP175 T01890167
KCLE 161151Z 20004KT 10SM BKN055 BKN110 BKN250 19/17 A3008 RMK AO2 SLP182 T01940172 10217 20183 53004
KCLE 161251Z 24003KT 10SM FEW042 BKN055 BKN080 BKN250 21/17 A3009 RMK AO2 SLP185 T02110172



Page loaded:  13:08 UTC  |   06:08 AM Pacific  |   07:08 AM Mountain  |   08:08 AM Central  |   09:08 AM Eastern

 

ADVISORIES

FORECASTS

FORECASTS

OBSERVATIONS

USER TOOLS

ABOUT US